Time;durP1;ratioP1;P1;durP2;ratioP2;P2;SDS_P1;SDS_P2;PMS_P1;PMS_P2;Temp;Humidity;BMP_temperature;BMP_pressure;BME280_temperature;BME280_humidity;BME280_pressure;Samples;Min_cycle;Max_cycle;Signal;HPM_P1;HPM_P2
2022/11/23 00:01:41;;;;;;;0.82;0.82;;;2.90;99.90;;;;;;5004220;28;20049;-78
2022/11/23 00:04:10;;;;;;;1.75;1.20;;;2.90;99.90;;;;;;5006214;28;20463;-77
2022/11/23 00:06:37;;;;;;;1.45;1.15;;;2.90;99.90;;;;;;5003853;28;20045;-77
2022/11/23 00:09:04;;;;;;;1.70;1.20;;;2.90;99.90;;;;;;5021664;28;20053;-77
2022/11/23 00:11:32;;;;;;;1.17;0.90;;;2.90;99.90;;;;;;5038769;28;20052;-78
2022/11/23 00:13:59;;;;;;;1.13;0.90;;;2.80;99.90;;;;;;5008542;28;20060;-79
2022/11/23 00:16:27;;;;;;;1.00;0.90;;;2.90;99.90;;;;;;5026962;28;20048;-78
2022/11/23 00:18:55;;;;;;;0.88;0.75;;;2.80;99.90;;;;;;5043567;28;20071;-78
2022/11/23 00:21:23;;;;;;;2.08;0.90;;;2.80;99.90;;;;;;5061372;28;20503;-77
2022/11/23 00:23:50;;;;;;;1.17;0.70;;;2.80;99.90;;;;;;5061374;28;20438;-76
2022/11/23 00:26:17;;;;;;;0.93;0.90;;;2.80;99.90;;;;;;5043064;28;20059;-77
2022/11/23 00:28:44;;;;;;;1.25;0.98;;;2.70;99.90;;;;;;5061357;28;20056;-79
2022/11/23 00:31:12;;;;;;;1.05;0.90;;;2.80;99.90;;;;;;5043747;28;20064;-80
2022/11/23 00:33:39;;;;;;;1.23;0.82;;;2.70;99.90;;;;;;5060856;28;20056;-79
2022/11/23 00:36:15;;;;;;;1.13;1.00;;;2.70;99.90;;;;;;5043547;28;20496;-79
2022/11/23 00:38:42;;;;;;;1.73;1.10;;;2.80;99.90;;;;;;5060905;28;20131;-79
2022/11/23 00:41:28;;;;;;;1.40;1.00;;;2.70;99.90;;;;;;5043041;28;20075;-79
2022/11/23 00:43:55;;;;;;;1.40;1.20;;;2.80;99.90;;;;;;5061156;28;20082;-78
2022/11/23 00:46:23;;;;;;;1.25;1.13;;;2.70;99.90;;;;;;5061727;28;20384;-79
2022/11/23 00:48:52;;;;;;;0.82;0.80;;;2.70;99.90;;;;;;5043664;28;20059;-79
2022/11/23 00:51:20;;;;;;;1.02;0.85;;;2.70;99.90;;;;;;5044097;28;20058;-79
2022/11/23 00:53:48;;;;;;;1.13;1.02;;;2.70;99.90;;;;;;5043069;28;20529;-79
2022/11/23 00:56:15;;;;;;;1.25;0.80;;;2.70;99.90;;;;;;5043133;28;20444;-79
2022/11/23 00:58:46;;;;;;;1.33;0.80;;;2.70;99.90;;;;;;5042739;28;20052;-79
2022/11/23 01:01:13;;;;;;;1.63;1.00;;;2.70;99.90;;;;;;5061682;28;20040;-79
2022/11/23 01:03:42;;;;;;;0.65;0.65;;;2.60;99.90;;;;;;5026506;28;20455;-80
2022/11/23 01:06:17;;;;;;;1.15;0.70;;;2.70;99.90;;;;;;5044041;28;20049;-80
2022/11/23 01:08:58;;;;;;;0.80;0.80;;;2.70;99.90;;;;;;5043547;28;20058;-79
2022/11/23 01:11:28;;;;;;;0.82;0.80;;;2.70;99.90;;;;;;5043266;28;20414;-79
2022/11/23 01:13:55;;;;;;;1.08;0.98;;;2.70;99.90;;;;;;5041728;28;20139;-79
2022/11/23 01:16:23;;;;;;;1.33;0.90;;;2.70;99.90;;;;;;5060595;28;20040;-79
2022/11/23 01:18:54;;;;;;;1.52;0.90;;;2.70;99.90;;;;;;5043230;28;20056;-78
2022/11/23 01:21:21;;;;;;;1.10;0.80;;;2.60;99.90;;;;;;5060872;28;20049;-78
2022/11/23 01:23:47;;;;;;;1.67;0.90;;;2.70;99.90;;;;;;5060956;28;20074;-78
2022/11/23 01:26:14;;;;;;;1.35;0.82;;;2.70;99.90;;;;;;5040633;28;20140;-77
2022/11/23 01:28:41;;;;;;;2.72;1.20;;;2.70;99.90;;;;;;5023265;28;20184;-78
2022/11/23 01:31:13;;;;;;;1.27;0.90;;;2.70;99.90;;;;;;5023169;28;20164;-76
2022/11/23 01:33:40;;;;;;;0.73;0.70;;;2.70;99.90;;;;;;5017841;28;20052;-77
2022/11/23 01:36:13;;;;;;;0.88;0.65;;;2.70;99.90;;;;;;5023887;28;20045;-77
2022/11/23 01:38:41;;;;;;;1.42;1.00;;;2.60;99.90;;;;;;5040541;28;20140;-77
2022/11/23 01:41:10;;;;;;;1.15;0.90;;;2.70;99.90;;;;;;5041671;28;20052;-77
2022/11/23 01:43:37;;;;;;;1.30;0.90;;;2.70;99.90;;;;;;5019238;28;20088;-77
2022/11/23 01:46:04;;;;;;;1.02;0.95;;;2.70;99.90;;;;;;4987831;28;20618;-78
2022/11/23 01:48:37;;;;;;;0.75;0.60;;;2.80;99.90;;;;;;5019133;28;20072;-77
2022/11/23 01:51:05;;;;;;;1.52;1.25;;;3.00;99.90;;;;;;5008798;28;20049;-77
2022/11/23 01:53:32;;;;;;;1.77;1.00;;;3.00;99.90;;;;;;5007645;28;20049;-77
2022/11/23 01:56:00;;;;;;;1.35;0.85;;;3.10;99.90;;;;;;4987741;28;20054;-77
2022/11/23 01:58:29;;;;;;;0.70;0.70;;;3.20;99.90;;;;;;5004925;28;20596;-78
2022/11/23 02:00:56;;;;;;;1.08;0.80;;;3.30;99.90;;;;;;5007497;28;20084;-77
2022/11/23 02:03:24;;;;;;;1.13;0.73;;;3.50;99.90;;;;;;4999420;28;20393;-78
2022/11/23 02:05:58;;;;;;;0.60;0.60;;;3.70;99.90;;;;;;5010322;28;20064;-78
2022/11/23 02:08:24;;;;;;;0.60;0.50;;;3.80;99.90;;;;;;5027717;28;20135;-77
2022/11/23 02:10:51;;;;;;;0.90;0.80;;;4.00;99.90;;;;;;5030139;28;20051;-77
2022/11/23 02:13:18;;;;;;;1.48;1.13;;;4.10;99.90;;;;;;5028336;28;20123;-77
2022/11/23 02:15:44;;;;;;;0.50;0.50;;;4.30;99.90;;;;;;5033432;28;20107;-77
2022/11/23 02:18:14;;;;;;;0.70;0.70;;;4.40;99.90;;;;;;5067625;28;20066;-78
2022/11/23 02:20:42;;;;;;;0.52;0.52;;;4.40;99.90;;;;;;5049625;28;20048;-77
2022/11/23 02:23:18;;;;;;;0.50;0.50;;;4.50;99.90;;;;;;5048267;28;20143;-78
2022/11/23 02:25:44;;;;;;;0.60;0.55;;;4.50;99.90;;;;;;5049528;28;20063;-77
2022/11/23 02:28:19;;;;;;;0.55;0.55;;;4.50;99.90;;;;;;5066005;28;20044;-77
2022/11/23 02:30:47;;;;;;;0.47;0.47;;;4.50;99.90;;;;;;5028612;28;20474;-77
2022/11/23 02:33:31;;;;;;;0.73;0.60;;;4.50;99.90;;;;;;5029025;28;20549;-78
2022/11/23 02:35:59;;;;;;;0.32;0.32;;;4.50;99.90;;;;;;5068904;28;20049;-78
2022/11/23 02:38:28;;;;;;;0.98;0.70;;;4.50;99.90;;;;;;5050759;28;20123;-78
2022/11/23 02:40:55;;;;;;;0.40;0.40;;;4.60;99.90;;;;;;5051474;28;20048;-77
2022/11/23 02:43:22;;;;;;;1.08;0.70;;;4.50;99.90;;;;;;5049970;28;20078;-77
2022/11/23 02:45:53;;;;;;;0.50;0.50;;;4.50;99.90;;;;;;5041136;28;20071;-78
2022/11/23 02:48:20;;;;;;;0.32;0.32;;;4.40;99.90;;;;;;5026838;28;20054;-77
2022/11/23 02:50:47;;;;;;;0.50;0.50;;;4.40;99.90;;;;;;5027364;28;20049;-77
2022/11/23 02:53:14;;;;;;;0.63;0.50;;;4.30;99.90;;;;;;5008475;28;20053;-77
2022/11/23 02:55:40;;;;;;;0.40;0.40;;;4.30;99.90;;;;;;5027770;28;20049;-77
2022/11/23 02:58:07;;;;;;;0.47;0.47;;;4.20;99.90;;;;;;4991834;28;20081;-78
2022/11/23 03:00:34;;;;;;;0.40;0.40;;;4.20;99.90;;;;;;4993694;28;20623;-77
2022/11/23 03:03:01;;;;;;;0.70;0.50;;;4.10;99.90;;;;;;5010716;28;20133;-77
2022/11/23 03:05:28;;;;;;;0.50;0.50;;;4.10;99.90;;;;;;5009856;28;20128;-77
2022/11/23 03:07:55;;;;;;;1.05;0.50;;;4.10;99.90;;;;;;5008932;28;20045;-77
2022/11/23 03:10:21;;;;;;;0.50;0.50;;;4.00;99.90;;;;;;5008250;28;20052;-78
2022/11/23 03:12:48;;;;;;;0.50;0.50;;;3.90;99.90;;;;;;5011697;28;20064;-77
2022/11/23 03:15:15;;;;;;;0.40;0.40;;;3.90;99.90;;;;;;5028705;28;20516;-77
2022/11/23 03:17:41;;;;;;;2.45;0.40;;;3.90;99.90;;;;;;5046844;28;20056;-78
2022/11/23 03:20:08;;;;;;;0.45;0.45;;;3.80;99.90;;;;;;5011876;28;20514;-77
2022/11/23 03:22:36;;;;;;;0.40;0.40;;;3.80;99.90;;;;;;5046883;28;20056;-79
2022/11/23 03:25:03;;;;;;;0.47;0.47;;;3.80;99.90;;;;;;5045688;28;20061;-78
2022/11/23 03:27:32;;;;;;;0.43;0.43;;;3.70;99.90;;;;;;5046213;28;20113;-78
2022/11/23 03:29:59;;;;;;;0.30;0.30;;;3.70;99.90;;;;;;5028747;28;20049;-77
2022/11/23 03:32:25;;;;;;;2.03;0.43;;;3.60;99.90;;;;;;5046312;28;20548;-78
2022/11/23 03:34:52;;;;;;;0.35;0.32;;;3.60;99.90;;;;;;5024470;28;20053;-79
2022/11/23 03:37:19;;;;;;;0.40;0.40;;;3.50;99.90;;;;;;5026572;28;20366;-78
2022/11/23 03:39:46;;;;;;;0.30;0.30;;;3.50;99.90;;;;;;5008431;28;20045;-78
2022/11/23 03:42:13;;;;;;;1.05;0.50;;;3.50;99.90;;;;;;5026224;28;20465;-77
2022/11/23 03:44:40;;;;;;;0.82;0.43;;;3.50;99.90;;;;;;5043797;28;20049;-77
2022/11/23 03:47:06;;;;;;;0.55;0.52;;;3.50;99.90;;;;;;5046374;28;20068;-78
2022/11/23 03:49:33;;;;;;;0.40;0.40;;;3.60;99.90;;;;;;5044254;28;20053;-77
2022/11/23 03:52:00;;;;;;;0.50;0.50;;;3.60;99.90;;;;;;5044793;28;20045;-78
2022/11/23 03:54:27;;;;;;;0.50;0.50;;;3.60;99.90;;;;;;5024325;28;20068;-77
2022/11/23 03:56:53;;;;;;;1.00;0.60;;;3.60;99.90;;;;;;5008047;28;20052;-77
2022/11/23 03:59:20;;;;;;;0.43;0.43;;;3.70;99.90;;;;;;5008516;28;20053;-78
2022/11/23 04:01:47;;;;;;;0.52;0.40;;;3.70;99.90;;;;;;4992127;28;20524;-77
2022/11/23 04:04:13;;;;;;;0.60;0.60;;;3.70;99.90;;;;;;5039695;28;20123;-78
2022/11/23 04:06:40;;;;;;;0.98;0.55;;;3.70;99.90;;;;;;5027977;28;20052;-77
2022/11/23 04:09:07;;;;;;;0.52;0.50;;;3.70;99.90;;;;;;5045876;28;20400;-78
2022/11/23 04:11:34;;;;;;;0.70;0.50;;;3.70;99.90;;;;;;5027367;28;20053;-77
2022/11/23 04:14:00;;;;;;;0.80;0.68;;;3.70;99.90;;;;;;5024737;28;20049;-78
2022/11/23 04:16:27;;;;;;;0.60;0.60;;;3.70;99.90;;;;;;5008238;28;20626;-77
2022/11/23 04:18:54;;;;;;;0.47;0.47;;;3.70;99.90;;;;;;5026534;28;20080;-76
2022/11/23 04:21:21;;;;;;;0.93;0.60;;;3.80;99.90;;;;;;4990880;28;20638;-77
2022/11/23 04:23:47;;;;;;;0.65;0.65;;;3.80;99.90;;;;;;5033730;28;20511;-77
2022/11/23 04:26:14;;;;;;;0.47;0.47;;;3.80;99.90;;;;;;5044651;28;20055;-77
2022/11/23 04:28:41;;;;;;;0.75;0.68;;;3.90;99.90;;;;;;5045552;28;20564;-78
2022/11/23 04:31:08;;;;;;;0.70;0.50;;;3.90;99.90;;;;;;5027150;28;20412;-78
2022/11/23 04:33:35;;;;;;;0.52;0.52;;;3.90;99.90;;;;;;5045339;28;20052;-77
2022/11/23 04:36:02;;;;;;;0.93;0.60;;;3.90;99.90;;;;;;5044862;28;20072;-77
2022/11/23 04:38:28;;;;;;;0.55;0.43;;;3.90;99.90;;;;;;5027572;28;20438;-77
2022/11/23 04:40:55;;;;;;;0.45;0.45;;;3.90;99.90;;;;;;5027502;28;20131;-77
2022/11/23 04:43:22;;;;;;;0.40;0.40;;;3.90;99.90;;;;;;5023629;28;20049;-77
2022/11/23 04:45:48;;;;;;;0.35;0.35;;;3.90;99.90;;;;;;5025338;28;20124;-78
2022/11/23 04:48:15;;;;;;;1.38;0.80;;;3.90;99.90;;;;;;5008185;28;20050;-78
2022/11/23 04:50:42;;;;;;;1.00;0.70;;;3.90;99.90;;;;;;5025201;28;20057;-79
2022/11/23 04:53:12;;;;;;;0.70;0.60;;;3.90;99.90;;;;;;5014559;28;20079;-80
2022/11/23 04:55:39;;;;;;;0.63;0.60;;;4.00;99.90;;;;;;5047399;28;20052;-80
2022/11/23 04:58:05;;;;;;;0.40;0.40;;;4.00;99.90;;;;;;5064630;28;20055;-79
2022/11/23 05:00:32;;;;;;;0.65;0.50;;;4.10;99.90;;;;;;5064963;28;20059;-80
2022/11/23 05:02:59;;;;;;;0.38;0.38;;;4.10;99.90;;;;;;5065001;28;20040;-77
2022/11/23 05:05:26;;;;;;;0.40;0.40;;;4.20;99.90;;;;;;5046964;28;20459;-79
2022/11/23 05:07:53;;;;;;;0.52;0.47;;;4.20;99.90;;;;;;5047030;28;20060;-79
2022/11/23 05:10:20;;;;;;;0.35;0.35;;;4.20;99.90;;;;;;5046659;28;20056;-79
2022/11/23 05:12:47;;;;;;;0.50;0.50;;;4.30;99.90;;;;;;5046721;28;20220;-79
2022/11/23 05:15:14;;;;;;;0.52;0.52;;;4.30;99.90;;;;;;5025611;28;20086;-80
2022/11/23 05:17:40;;;;;;;0.60;0.60;;;4.30;99.90;;;;;;5027755;28;20059;-80
2022/11/23 05:20:08;;;;;;;0.63;0.45;;;4.30;99.90;;;;;;5010091;28;20491;-79
2022/11/23 05:22:34;;;;;;;0.50;0.50;;;4.40;99.90;;;;;;5027648;28;20083;-80
2022/11/23 05:25:01;;;;;;;0.50;0.50;;;4.40;99.90;;;;;;5022868;28;20050;-79
2022/11/23 05:27:28;;;;;;;0.65;0.43;;;4.50;99.90;;;;;;4990515;28;20137;-79
2022/11/23 05:29:55;;;;;;;0.30;0.30;;;4.50;99.90;;;;;;4990601;28;20118;-79
2022/11/23 05:32:22;;;;;;;0.55;0.43;;;4.60;99.90;;;;;;4992228;28;20061;-79
2022/11/23 05:34:49;;;;;;;0.47;0.47;;;4.60;99.90;;;;;;5060114;28;20049;-79
2022/11/23 05:37:15;;;;;;;0.45;0.45;;;4.60;99.90;;;;;;5068982;28;20048;-79
2022/11/23 05:39:42;;;;;;;0.65;0.65;;;4.60;99.90;;;;;;5049879;28;20300;-80
2022/11/23 05:42:09;;;;;;;0.50;0.28;;;4.60;99.90;;;;;;5050257;28;20128;-80
2022/11/23 05:44:36;;;;;;;0.25;0.20;;;4.60;99.90;;;;;;5049858;28;20055;-78
2022/11/23 05:47:03;;;;;;;0.45;0.45;;;4.60;99.90;;;;;;5033951;28;20148;-79
2022/11/23 05:49:30;;;;;;;1.02;0.40;;;4.70;99.90;;;;;;5012122;28;20054;-80
2022/11/23 05:51:57;;;;;;;0.20;0.20;;;4.70;99.90;;;;;;4976641;28;20056;-80
2022/11/23 05:54:24;;;;;;;0.50;0.50;;;4.70;99.90;;;;;;5002086;28;20080;-79
2022/11/23 05:56:51;;;;;;;0.68;0.50;;;4.70;99.90;;;;;;5023649;28;20128;-80
2022/11/23 05:59:17;;;;;;;0.65;0.60;;;4.80;99.90;;;;;;5026895;28;20045;-78
2022/11/23 06:01:44;;;;;;;2.85;1.02;;;4.80;99.90;;;;;;5026812;28;20048;-78
2022/11/23 06:04:12;;;;;;;0.60;0.60;;;4.90;99.90;;;;;;5006405;28;20048;-79
2022/11/23 06:06:39;;;;;;;1.02;0.80;;;5.00;99.90;;;;;;5025351;28;20052;-79
2022/11/23 06:09:05;;;;;;;1.17;0.90;;;5.20;99.90;;;;;;5009247;28;20072;-79
2022/11/23 06:11:32;;;;;;;0.55;0.40;;;5.30;99.90;;;;;;5008843;28;20558;-79
2022/11/23 06:13:59;;;;;;;1.08;0.40;;;5.40;99.90;;;;;;5023052;28;20041;-79
2022/11/23 06:16:26;;;;;;;1.42;0.60;;;5.50;99.90;;;;;;5006702;28;20077;-79
2022/11/23 06:18:52;;;;;;;0.85;0.60;;;5.50;99.90;;;;;;5015335;28;20397;-79
2022/11/23 06:21:19;;;;;;;1.80;0.85;;;5.60;99.90;;;;;;5026512;28;20064;-79
2022/11/23 06:23:46;;;;;;;1.27;0.70;;;5.80;99.90;;;;;;5020236;28;20073;-79
2022/11/23 06:26:13;;;;;;;1.40;0.88;;;5.90;99.90;;;;;;5005444;28;20072;-79
2022/11/23 06:28:40;;;;;;;1.35;1.05;;;6.00;99.90;;;;;;5014027;28;20132;-79
2022/11/23 06:31:07;;;;;;;0.73;0.50;;;6.10;99.90;;;;;;5011351;28;20145;-79
2022/11/23 06:33:33;;;;;;;1.33;0.63;;;6.10;99.90;;;;;;5022878;28;20396;-81
2022/11/23 06:36:01;;;;;;;1.02;0.55;;;6.20;99.90;;;;;;5006239;28;20116;-79
2022/11/23 06:38:27;;;;;;;1.70;0.80;;;6.30;99.90;;;;;;5008040;28;20073;-81
2022/11/23 06:40:58;;;;;;;0.90;0.65;;;6.40;99.90;;;;;;5005798;28;20148;-79
2022/11/23 06:43:25;;;;;;;3.50;1.25;;;6.50;99.90;;;;;;5019377;28;20049;-77
2022/11/23 06:45:56;;;;;;;1.55;0.82;;;6.70;99.90;;;;;;5009211;28;20053;-76
2022/11/23 06:48:22;;;;;;;1.90;0.70;;;6.80;99.90;;;;;;5016271;28;20049;-76
2022/11/23 06:50:49;;;;;;;4.68;1.15;;;7.00;99.90;;;;;;5012510;28;20374;-78
2022/11/23 06:53:16;;;;;;;2.53;0.88;;;7.10;99.90;;;;;;5011146;28;20131;-78
2022/11/23 06:55:42;;;;;;;1.85;0.95;;;7.20;99.90;;;;;;5012224;28;20051;-75
2022/11/23 06:58:09;;;;;;;3.65;1.15;;;7.30;99.90;;;;;;5028475;28;20102;-76
2022/11/23 07:00:36;;;;;;;3.08;0.85;;;7.40;99.90;;;;;;5026710;28;20045;-78
2022/11/23 07:03:02;;;;;;;2.45;0.68;;;7.40;99.90;;;;;;5020579;28;20049;-76
2022/11/23 07:05:30;;;;;;;2.17;1.10;;;7.50;99.90;;;;;;5002278;28;20136;-78
2022/11/23 07:07:57;;;;;;;1.75;0.80;;;7.50;99.90;;;;;;5002553;28;20044;-76
2022/11/23 07:10:24;;;;;;;1.35;1.00;;;7.60;99.90;;;;;;5022578;28;20060;-77
2022/11/23 07:12:51;;;;;;;0.77;0.70;;;7.60;99.90;;;;;;4993598;28;20038;-76
2022/11/23 07:15:18;;;;;;;1.60;0.70;;;7.70;99.90;;;;;;5001903;28;20053;-77
2022/11/23 07:17:45;;;;;;;0.60;0.60;;;7.70;99.90;;;;;;5002314;28;20057;-77
2022/11/23 07:20:13;;;;;;;1.20;0.68;;;7.70;99.90;;;;;;4992743;28;20060;-77
2022/11/23 07:22:40;;;;;;;0.90;0.52;;;7.80;99.90;;;;;;5001407;28;20057;-77
2022/11/23 07:25:10;;;;;;;0.88;0.50;;;7.80;99.90;;;;;;5038771;28;20445;-76
2022/11/23 07:27:37;;;;;;;0.50;0.50;;;7.90;99.90;;;;;;5021324;28;20057;-76
2022/11/23 07:30:04;;;;;;;0.47;0.38;;;7.90;99.90;;;;;;5000824;28;20445;-76
2022/11/23 07:32:31;;;;;;;1.27;0.40;;;8.00;99.90;;;;;;5013604;28;20049;-77
2022/11/23 07:34:58;;;;;;;0.90;0.52;;;8.10;99.90;;;;;;5002734;28;20049;-77
2022/11/23 07:37:24;;;;;;;0.80;0.70;;;8.20;99.90;;;;;;4999714;28;20140;-77
2022/11/23 07:39:51;;;;;;;2.83;1.02;;;8.30;99.90;;;;;;5013911;28;20064;-77
2022/11/23 07:42:24;;;;;;;1.27;0.83;;;8.40;99.90;;;;;;4991330;28;20504;-77
2022/11/23 07:45:00;;;;;;;3.17;1.00;;;8.50;99.90;;;;;;5025224;28;20585;-76
2022/11/23 07:47:27;;;;;;;3.33;1.25;;;8.50;99.90;;;;;;5002130;28;20055;-76
2022/11/23 07:49:54;;;;;;;0.73;0.70;;;8.50;99.90;;;;;;4998083;28;20146;-76
2022/11/23 07:52:20;;;;;;;1.77;1.00;;;8.50;99.90;;;;;;5023300;28;20049;-77
2022/11/23 07:54:47;;;;;;;1.33;0.75;;;8.60;99.90;;;;;;5018470;28;20347;-77
2022/11/23 07:57:14;;;;;;;2.58;0.80;;;8.60;99.90;;;;;;5020678;28;20071;-77
2022/11/23 07:59:41;;;;;;;1.30;0.82;;;8.70;99.90;;;;;;5017049;28;20463;-77
2022/11/23 08:02:12;;;;;;;3.08;0.93;;;8.70;99.90;;;;;;4999854;28;20037;-77
2022/11/23 08:04:39;;;;;;;0.77;0.63;;;8.80;99.90;;;;;;4999813;28;20058;-77
2022/11/23 08:07:05;;;;;;;0.70;0.60;;;8.80;99.90;;;;;;5001827;28;20197;-77
2022/11/23 08:09:32;;;;;;;1.25;0.60;;;8.80;99.90;;;;;;4997051;28;20132;-77
2022/11/23 08:11:59;;;;;;;1.98;0.70;;;8.90;99.90;;;;;;5015392;28;20516;-76
2022/11/23 08:14:26;;;;;;;0.80;0.70;;;8.90;99.90;;;;;;5018909;28;20619;-77
2022/11/23 08:16:52;;;;;;;1.05;0.63;;;8.90;99.90;;;;;;5039431;28;20056;-77
2022/11/23 08:19:19;;;;;;;0.70;0.70;;;9.00;99.90;;;;;;5020797;28;20057;-76
2022/11/23 08:21:46;;;;;;;0.45;0.45;;;9.00;99.90;;;;;;5015535;28;20140;-77
2022/11/23 08:24:12;;;;;;;0.93;0.65;;;9.10;99.90;;;;;;5015002;28;20059;-76
2022/11/23 08:26:39;;;;;;;0.70;0.70;;;9.10;99.90;;;;;;5047056;28;20053;-76
2022/11/23 08:29:06;;;;;;;1.20;0.90;;;9.20;99.90;;;;;;5032787;28;20409;-76
2022/11/23 08:31:33;;;;;;;0.95;0.55;;;9.20;99.90;;;;;;5016987;28;20065;-76
2022/11/23 08:34:00;;;;;;;0.88;0.70;;;9.30;99.90;;;;;;5055874;28;20148;-76
2022/11/23 08:36:29;;;;;;;0.43;0.43;;;9.40;99.90;;;;;;5058026;28;20068;-77
2022/11/23 08:38:56;;;;;;;0.75;0.75;;;9.40;99.90;;;;;;5027061;28;20053;-75
2022/11/23 08:41:22;;;;;;;0.70;0.60;;;9.50;99.90;;;;;;5037072;28;20064;-75
2022/11/23 08:43:50;;;;;;;0.82;0.60;;;9.50;99.90;;;;;;5021485;28;20049;-76
2022/11/23 08:46:16;;;;;;;0.73;0.47;;;9.50;99.90;;;;;;4984624;28;20053;-76
2022/11/23 08:48:43;;;;;;;1.33;0.50;;;9.50;99.90;;;;;;5016849;28;20060;-76
2022/11/23 08:51:10;;;;;;;0.60;0.40;;;9.60;99.90;;;;;;5000716;28;20408;-75
2022/11/23 08:53:37;;;;;;;0.98;0.60;;;9.60;99.90;;;;;;4988100;28;20095;-76
2022/11/23 08:56:04;;;;;;;0.30;0.30;;;9.60;99.90;;;;;;5008663;28;20488;-76
2022/11/23 08:58:31;;;;;;;0.60;0.50;;;9.70;99.90;;;;;;4996903;28;20044;-77
2022/11/23 09:00:58;;;;;;;0.88;0.55;;;9.70;99.90;;;;;;4995047;28;20056;-76
2022/11/23 09:03:24;;;;;;;0.70;0.55;;;9.70;99.90;;;;;;5015635;28;20395;-76
2022/11/23 09:05:53;;;;;;;0.80;0.55;;;9.70;99.90;;;;;;5020783;28;20049;-76
2022/11/23 09:08:19;;;;;;;1.13;0.70;;;9.80;99.90;;;;;;5028294;28;20063;-77
2022/11/23 09:10:46;;;;;;;0.60;0.60;;;9.80;99.90;;;;;;5018705;28;20464;-77
2022/11/23 09:13:13;;;;;;;0.60;0.60;;;9.80;99.90;;;;;;5028003;28;20059;-77
2022/11/23 09:15:39;;;;;;;0.47;0.40;;;9.80;99.90;;;;;;4999262;28;20049;-77
2022/11/23 09:18:06;;;;;;;0.75;0.75;;;9.90;99.90;;;;;;5030156;28;20606;-76
2022/11/23 09:20:33;;;;;;;0.30;0.30;;;9.90;99.90;;;;;;5003201;28;20065;-76
2022/11/23 09:23:00;;;;;;;0.60;0.60;;;9.90;99.90;;;;;;5006713;28;20083;-78
2022/11/23 09:25:27;;;;;;;0.57;0.57;;;9.90;99.90;;;;;;5014360;28;20156;-77
2022/11/23 09:28:01;;;;;;;0.90;0.70;;;9.90;99.90;;;;;;5006086;28;20053;-77
2022/11/23 09:30:27;;;;;;;1.40;0.60;;;10.00;99.90;;;;;;4994344;28;20489;-76
2022/11/23 09:32:55;;;;;;;0.45;0.40;;;10.10;99.90;;;;;;4994387;28;20411;-76
2022/11/23 09:35:22;;;;;;;0.65;0.60;;;10.20;99.90;;;;;;5014884;28;20045;-76
2022/11/23 09:37:57;;;;;;;0.60;0.40;;;10.20;99.90;;;;;;5011983;28;20049;-76
2022/11/23 09:40:45;;;;;;;1.42;0.60;;;10.40;99.90;;;;;;5013923;28;20049;-76
2022/11/23 09:43:40;;;;;;;1.85;0.73;;;10.40;99.90;;;;;;5032636;28;20045;-75
2022/11/23 09:46:45;;;;;;;0.55;0.50;;;10.50;99.90;;;;;;5025259;28;20041;-75
2022/11/23 09:49:21;;;;;;;1.35;0.70;;;10.50;99.90;;;;;;4983777;28;20137;-76
2022/11/23 09:51:49;;;;;;;1.92;0.85;;;10.60;99.90;;;;;;4991980;28;20493;-76
2022/11/23 09:54:32;;;;;;;2.30;1.20;;;10.50;99.90;;;;;;5017673;28;20494;-77
2022/11/23 09:56:59;;;;;;;1.27;0.55;;;10.50;99.90;;;;;;5037267;28;20053;-77
2022/11/23 09:59:40;;;;;;;1.35;0.70;;;10.50;99.90;;;;;;5025405;28;20049;-76
2022/11/23 10:02:23;;;;;;;1.00;0.65;;;10.50;99.90;;;;;;5024302;28;20148;-76
2022/11/23 10:04:54;;;;;;;1.20;0.60;;;10.50;99.90;;;;;;5025600;28;22007;-76
2022/11/23 10:07:29;;;;;;;1.13;0.60;;;10.50;99.90;;;;;;5037424;28;20065;-76
2022/11/23 10:10:32;;;;;;;1.65;0.80;;;10.50;99.90;;;;;;5011508;28;20172;-76
2022/11/23 10:13:10;;;;;;;3.28;1.27;;;10.40;99.90;;;;;;5013361;28;20057;-76
2022/11/23 10:15:39;;;;;;;2.08;0.80;;;10.40;99.90;;;;;;5018610;28;20116;-76
2022/11/23 10:18:18;;;;;;;3.40;1.08;;;10.40;99.90;;;;;;5005801;28;20704;-76
2022/11/23 10:20:47;;;;;;;1.98;0.80;;;10.40;99.90;;;;;;5027311;28;20049;-76
2022/11/23 10:23:38;;;;;;;3.20;1.20;;;10.40;99.90;;;;;;5023538;28;20054;-75
2022/11/23 10:26:09;;;;;;;1.67;0.77;;;10.40;99.90;;;;;;5025968;28;20057;-76
2022/11/23 10:28:36;;;;;;;2.13;1.00;;;10.40;99.90;;;;;;5020055;28;20107;-76
2022/11/23 10:31:16;;;;;;;0.57;0.57;;;10.40;99.90;;;;;;5010021;28;20053;-75
2022/11/23 10:34:20;;;;;;;1.52;0.70;;;10.30;99.90;;;;;;5039221;28;20052;-76
2022/11/23 10:36:47;;;;;;;;;;;10.30;99.90;;;;;;4994270;28;20045;-76
2022/11/23 10:39:17;;;;;;;0.95;0.68;;;10.30;99.90;;;;;;5028248;28;20006;-76
2022/11/23 10:41:45;;;;;;;3.50;0.90;;;10.30;99.90;;;;;;5017658;28;20050;-76
2022/11/23 10:44:24;;;;;;;1.30;0.70;;;10.30;99.90;;;;;;5000391;28;20048;-76
2022/11/23 10:46:50;;;;;;;3.38;0.82;;;10.30;99.90;;;;;;5025383;28;20139;-75
2022/11/23 10:49:33;;;;;;;2.90;1.05;;;10.40;99.90;;;;;;5024906;28;20065;-75
2022/11/23 10:52:42;;;;;;;2.55;0.88;;;10.40;99.90;;;;;;5014853;28;20152;-75
2022/11/23 10:55:12;;;;;;;0.90;0.60;;;10.50;99.90;;;;;;5015357;28;20115;-76
2022/11/23 10:57:42;;;;;;;2.22;0.93;;;10.50;99.90;;;;;;5004412;28;20135;-75
2022/11/23 11:00:09;;;;;;;1.98;0.80;;;10.60;99.90;;;;;;5021292;28;20132;-75
2022/11/23 11:02:38;;;;;;;1.30;0.70;;;10.60;99.90;;;;;;5039605;28;20047;-76
2022/11/23 11:05:14;;;;;;;4.20;1.10;;;10.70;99.90;;;;;;5043196;28;20048;-76
2022/11/23 11:07:41;;;;;;;2.63;0.80;;;10.70;99.90;;;;;;5036921;28;20053;-76
2022/11/23 11:10:28;;;;;;;3.55;1.10;;;10.70;99.90;;;;;;5025402;28;20048;-76
2022/11/23 11:12:55;;;;;;;3.83;1.30;;;10.80;99.90;;;;;;5024019;28;20053;-74
2022/11/23 11:15:21;;;;;;;4.45;1.45;;;10.80;99.90;;;;;;4987754;28;20041;-80
2022/11/23 11:17:55;;;;;;;4.47;1.48;;;10.90;99.90;;;;;;5024771;28;20140;-77
2022/11/23 11:20:24;;;;;;;2.33;1.05;;;11.00;99.90;;;;;;4998852;28;20100;-76
2022/11/23 11:22:51;;;;;;;3.13;1.40;;;11.10;99.90;;;;;;5029723;28;20167;-79
2022/11/23 11:25:33;;;;;;;3.47;1.23;;;11.10;99.90;;;;;;5012902;28;20107;-75
2022/11/23 11:27:59;;;;;;;1.98;1.30;;;11.20;99.90;;;;;;5028520;28;20052;-78
2022/11/23 11:30:31;;;;;;;4.45;1.60;;;11.20;99.90;;;;;;5016723;28;20233;-78
2022/11/23 11:33:08;;;;;;;2.85;1.35;;;11.30;99.90;;;;;;5016397;28;20186;-78
2022/11/23 11:35:37;;;;;;;3.35;1.08;;;11.40;99.90;;;;;;4973169;28;20045;-78
2022/11/23 11:38:12;;;;;;;4.60;1.40;;;11.40;99.90;;;;;;5004183;28;20048;-77
2022/11/23 11:40:50;;;;;;;3.53;1.25;;;11.30;99.90;;;;;;5016356;28;20103;-78
2022/11/23 11:43:24;;;;;;;5.22;1.80;;;11.30;99.90;;;;;;5010537;28;20141;-77
2022/11/23 11:46:22;;;;;;;2.67;1.40;;;11.20;99.90;;;;;;5019677;28;20082;-77
2022/11/23 11:49:05;;;;;;;4.63;1.60;;;11.20;99.90;;;;;;5026176;28;20056;-77
2022/11/23 11:51:41;;;;;;;5.15;1.80;;;11.30;99.90;;;;;;5097552;27;20435;-78
2022/11/23 11:54:25;;;;;;;2.67;1.48;;;11.40;99.90;;;;;;5079866;28;20048;-79
2022/11/23 11:57:02;;;;;;;2.67;1.35;;;11.50;99.90;;;;;;5070838;28;20055;-78
2022/11/23 11:59:44;;;;;;;4.45;1.90;;;11.70;99.90;;;;;;5056209;28;20506;-79
2022/11/23 12:02:24;;;;;;;4.05;1.60;;;11.70;99.90;;;;;;5051688;28;20264;-79
2022/11/23 12:05:17;;;;;;;3.63;1.65;;;11.90;99.90;;;;;;5072711;28;20052;-79
2022/11/23 12:08:05;;;;;;;4.13;1.77;;;12.00;99.90;;;;;;5064766;28;20058;-79
2022/11/23 12:10:52;;;;;;;3.25;1.73;;;12.00;99.90;;;;;;5070118;28;20054;-79
2022/11/23 12:13:30;;;;;;;3.58;1.60;;;12.10;99.90;;;;;;5073206;28;20049;-79
2022/11/23 12:16:05;;;;;;;3.47;1.67;;;12.10;99.90;;;;;;5061099;28;20076;-79
2022/11/23 12:18:38;;;;;;;4.68;1.67;;;12.20;99.90;;;;;;5089341;28;20044;-79
2022/11/23 12:21:25;;;;;;;3.38;1.73;;;12.40;99.90;;;;;;5071289;28;20300;-80
2022/11/23 12:23:59;;;;;;;6.60;1.90;;;12.60;99.90;;;;;;5071603;28;20060;-76
2022/11/23 12:26:55;;;;;;;5.22;1.90;;;12.70;99.90;;;;;;5071448;28;20079;-76
2022/11/23 12:29:40;;;;;;;6.78;2.30;;;12.80;99.90;;;;;;5062333;28;20171;-75
2022/11/23 12:32:54;;;;;;;4.38;1.70;;;12.90;99.90;;;;;;5070230;28;20052;-74
2022/11/23 12:35:41;;;;;;;5.40;2.08;;;13.00;99.90;;;;;;5043670;28;20119;-75
2022/11/23 12:38:25;;;;;;;3.53;1.80;;;13.10;99.90;;;;;;5065580;28;20055;-76
2022/11/23 12:41:43;;;;;;;3.53;1.58;;;13.30;99.90;;;;;;5071424;28;20064;-74
2022/11/23 12:44:30;;;;;;;5.38;1.95;;;13.30;99.90;;;;;;5000369;28;20057;-75
2022/11/23 12:47:09;;;;;;;4.68;1.70;;;13.50;99.90;;;;;;5060482;28;20045;-74
2022/11/23 12:49:50;;;;;;;2.70;1.38;;;13.60;99.90;;;;;;5056929;28;20078;-74
2022/11/23 12:52:46;;;;;;;5.22;1.42;;;13.70;99.90;;;;;;5058531;28;20156;-74
2022/11/23 12:55:23;;;;;;;5.20;1.88;;;13.70;99.90;;;;;;5043791;28;20052;-74
2022/11/23 12:58:21;;;;;;;5.90;2.10;;;13.70;99.90;;;;;;5056706;28;20513;-74
2022/11/23 13:00:52;;;;;;;4.57;1.92;;;13.70;99.90;;;;;;5056303;28;20056;-75
2022/11/23 13:03:44;;;;;;;3.75;1.80;;;13.80;99.90;;;;;;5059682;28;20044;-74
2022/11/23 13:06:45;;;;;;;6.40;2.05;;;14.00;99.90;;;;;;5061383;28;20139;-75
2022/11/23 13:09:46;;;;;;;5.35;2.47;;;14.10;99.90;;;;;;5060273;28;20114;-75
2022/11/23 13:12:26;;;;;;;4.47;1.75;;;14.10;99.90;;;;;;5043060;28;20071;-75
2022/11/23 13:14:52;;;;;;;4.68;2.00;;;14.10;99.90;;;;;;5043720;28;20511;-75